sensor_id;sensor_type;location;lat;lon;timestamp;temperature;humidity
29501;DHT22;16450;50.288;10.966;2023-02-15T00:00:05;0.20;99.90
29501;DHT22;16450;50.288;10.966;2023-02-15T00:03:07;0.20;99.90
29501;DHT22;16450;50.288;10.966;2023-02-15T00:06:09;0.20;99.90
29501;DHT22;16450;50.288;10.966;2023-02-15T00:09:11;0.20;99.90
29501;DHT22;16450;50.288;10.966;2023-02-15T00:12:15;0.20;99.90
29501;DHT22;16450;50.288;10.966;2023-02-15T00:15:17;0.20;99.90
29501;DHT22;16450;50.288;10.966;2023-02-15T00:18:19;0.30;99.90
29501;DHT22;16450;50.288;10.966;2023-02-15T00:21:20;0.30;99.90
29501;DHT22;16450;50.288;10.966;2023-02-15T00:24:22;0.30;99.90
29501;DHT22;16450;50.288;10.966;2023-02-15T00:27:24;0.30;99.90
29501;DHT22;16450;50.288;10.966;2023-02-15T00:30:26;0.30;99.90
29501;DHT22;16450;50.288;10.966;2023-02-15T00:33:28;0.30;99.90
29501;DHT22;16450;50.288;10.966;2023-02-15T00:36:30;0.20;99.90
29501;DHT22;16450;50.288;10.966;2023-02-15T00:39:32;0.20;99.90
29501;DHT22;16450;50.288;10.966;2023-02-15T00:42:33;0.20;99.90
29501;DHT22;16450;50.288;10.966;2023-02-15T00:45:36;0.20;99.90
29501;DHT22;16450;50.288;10.966;2023-02-15T00:48:38;0.20;99.90
29501;DHT22;16450;50.288;10.966;2023-02-15T00:51:40;0.20;99.90
29501;DHT22;16450;50.288;10.966;2023-02-15T00:54:42;0.20;99.90
29501;DHT22;16450;50.288;10.966;2023-02-15T00:57:43;0.20;99.90
29501;DHT22;16450;50.288;10.966;2023-02-15T01:00:46;0.20;99.90
29501;DHT22;16450;50.288;10.966;2023-02-15T01:03:48;0.20;99.90
29501;DHT22;16450;50.288;10.966;2023-02-15T01:06:50;0.20;99.90
29501;DHT22;16450;50.288;10.966;2023-02-15T01:09:52;0.20;99.90
29501;DHT22;16450;50.288;10.966;2023-02-15T01:12:55;0.20;99.90
29501;DHT22;16450;50.288;10.966;2023-02-15T01:15:57;0.20;99.90
29501;DHT22;16450;50.288;10.966;2023-02-15T01:18:58;0.20;99.90
29501;DHT22;16450;50.288;10.966;2023-02-15T01:22:00;0.20;99.90
29501;DHT22;16450;50.288;10.966;2023-02-15T01:25:02;0.20;99.90
29501;DHT22;16450;50.288;10.966;2023-02-15T01:28:04;0.20;99.90
29501;DHT22;16450;50.288;10.966;2023-02-15T01:31:12;0.10;99.90
29501;DHT22;16450;50.288;10.966;2023-02-15T01:34:14;0.20;99.90
29501;DHT22;16450;50.288;10.966;2023-02-15T01:37:15;0.20;99.90
29501;DHT22;16450;50.288;10.966;2023-02-15T01:40:18;0.10;99.90
29501;DHT22;16450;50.288;10.966;2023-02-15T01:43:20;0.20;99.90
29501;DHT22;16450;50.288;10.966;2023-02-15T01:46:30;0.20;99.90
29501;DHT22;16450;50.288;10.966;2023-02-15T01:49:32;0.10;99.90
29501;DHT22;16450;50.288;10.966;2023-02-15T01:52:37;0.20;99.90
29501;DHT22;16450;50.288;10.966;2023-02-15T01:55:45;0.20;99.90
29501;DHT22;16450;50.288;10.966;2023-02-15T01:58:49;0.10;99.90
29501;DHT22;16450;50.288;10.966;2023-02-15T02:01:56;0.10;99.90
29501;DHT22;16450;50.288;10.966;2023-02-15T02:05:01;0.10;99.90
29501;DHT22;16450;50.288;10.966;2023-02-15T02:08:10;0.10;99.90
29501;DHT22;16450;50.288;10.966;2023-02-15T02:11:15;0.10;99.90
29501;DHT22;16450;50.288;10.966;2023-02-15T02:14:17;0.20;99.90
29501;DHT22;16450;50.288;10.966;2023-02-15T02:21:02;0.20;99.90
29501;DHT22;16450;50.288;10.966;2023-02-15T02:24:25;0.20;99.90
29501;DHT22;16450;50.288;10.966;2023-02-15T02:27:40;0.20;99.90
29501;DHT22;16450;50.288;10.966;2023-02-15T02:34:04;0.10;99.90
29501;DHT22;16450;50.288;10.966;2023-02-15T02:37:19;0.10;99.90
29501;DHT22;16450;50.288;10.966;2023-02-15T02:43:56;0.10;99.90
29501;DHT22;16450;50.288;10.966;2023-02-15T02:47:18;0.00;99.90
29501;DHT22;16450;50.288;10.966;2023-02-15T02:50:26;0.10;99.90
29501;DHT22;16450;50.288;10.966;2023-02-15T02:53:30;0.10;99.90
29501;DHT22;16450;50.288;10.966;2023-02-15T02:56:34;0.10;99.90
29501;DHT22;16450;50.288;10.966;2023-02-15T02:59:41;0.10;99.90
29501;DHT22;16450;50.288;10.966;2023-02-15T03:02:44;0.10;99.90
29501;DHT22;16450;50.288;10.966;2023-02-15T03:05:50;0.10;99.90
29501;DHT22;16450;50.288;10.966;2023-02-15T03:09:14;0.10;99.90
29501;DHT22;16450;50.288;10.966;2023-02-15T03:12:27;0.10;99.90
29501;DHT22;16450;50.288;10.966;2023-02-15T03:15:33;0.10;99.90
29501;DHT22;16450;50.288;10.966;2023-02-15T03:19:14;0.10;99.90
29501;DHT22;16450;50.288;10.966;2023-02-15T03:22:21;0.10;99.90
29501;DHT22;16450;50.288;10.966;2023-02-15T03:28:38;0.10;99.90
29501;DHT22;16450;50.288;10.966;2023-02-15T03:31:44;0.00;99.90
29501;DHT22;16450;50.288;10.966;2023-02-15T03:34:48;0.00;99.90
29501;DHT22;16450;50.288;10.966;2023-02-15T03:38:00;0.00;99.90
29501;DHT22;16450;50.288;10.966;2023-02-15T03:41:03;0.00;99.90
29501;DHT22;16450;50.288;10.966;2023-02-15T03:45:03;0.00;99.90
29501;DHT22;16450;50.288;10.966;2023-02-15T03:47:44;0.00;99.90
29501;DHT22;16450;50.288;10.966;2023-02-15T03:50:47;0.00;99.90
29501;DHT22;16450;50.288;10.966;2023-02-15T03:54:13;0.00;99.90
29501;DHT22;16450;50.288;10.966;2023-02-15T03:57:36;0.00;99.90
29501;DHT22;16450;50.288;10.966;2023-02-15T04:01:25;-0.10;99.90
29501;DHT22;16450;50.288;10.966;2023-02-15T04:04:47;-0.10;99.90
29501;DHT22;16450;50.288;10.966;2023-02-15T04:07:49;-0.10;99.90
29501;DHT22;16450;50.288;10.966;2023-02-15T04:10:51;-0.10;99.90
29501;DHT22;16450;50.288;10.966;2023-02-15T04:13:57;-0.10;99.90
29501;DHT22;16450;50.288;10.966;2023-02-15T04:17:00;-0.10;99.90
29501;DHT22;16450;50.288;10.966;2023-02-15T04:20:01;-0.10;99.90
29501;DHT22;16450;50.288;10.966;2023-02-15T04:23:22;0.00;99.90
29501;DHT22;16450;50.288;10.966;2023-02-15T04:26:43;0.00;99.90
29501;DHT22;16450;50.288;10.966;2023-02-15T04:29:44;0.00;99.90
29501;DHT22;16450;50.288;10.966;2023-02-15T04:32:46;0.00;99.90
29501;DHT22;16450;50.288;10.966;2023-02-15T04:35:48;0.00;99.90
29501;DHT22;16450;50.288;10.966;2023-02-15T04:38:50;0.00;99.90
29501;DHT22;16450;50.288;10.966;2023-02-15T04:41:52;0.00;99.90
29501;DHT22;16450;50.288;10.966;2023-02-15T04:44:54;-0.10;99.90
29501;DHT22;16450;50.288;10.966;2023-02-15T04:47:55;-0.10;99.90
29501;DHT22;16450;50.288;10.966;2023-02-15T04:50:57;-0.10;99.90
29501;DHT22;16450;50.288;10.966;2023-02-15T04:53:59;-0.10;99.90
29501;DHT22;16450;50.288;10.966;2023-02-15T04:57:01;-0.10;99.90
29501;DHT22;16450;50.288;10.966;2023-02-15T05:00:03;0.00;99.90
29501;DHT22;16450;50.288;10.966;2023-02-15T05:03:05;-0.10;99.90
29501;DHT22;16450;50.288;10.966;2023-02-15T05:06:07;-0.10;99.90
29501;DHT22;16450;50.288;10.966;2023-02-15T05:09:10;-0.20;99.90
29501;DHT22;16450;50.288;10.966;2023-02-15T05:12:12;-0.20;99.90
29501;DHT22;16450;50.288;10.966;2023-02-15T05:15:13;-0.20;99.90
29501;DHT22;16450;50.288;10.966;2023-02-15T05:18:16;-0.20;99.90
29501;DHT22;16450;50.288;10.966;2023-02-15T05:21:19;-0.20;99.90
29501;DHT22;16450;50.288;10.966;2023-02-15T05:24:21;-0.20;99.90
29501;DHT22;16450;50.288;10.966;2023-02-15T05:27:41;-0.20;99.90
29501;DHT22;16450;50.288;10.966;2023-02-15T05:31:13;-0.20;99.90
29501;DHT22;16450;50.288;10.966;2023-02-15T05:34:15;-0.20;99.90
29501;DHT22;16450;50.288;10.966;2023-02-15T05:37:17;-0.20;99.90
29501;DHT22;16450;50.288;10.966;2023-02-15T05:40:19;-0.30;99.90
29501;DHT22;16450;50.288;10.966;2023-02-15T05:43:21;-0.30;99.90
29501;DHT22;16450;50.288;10.966;2023-02-15T05:46:23;-0.30;99.90
29501;DHT22;16450;50.288;10.966;2023-02-15T05:49:25;-0.30;99.90
29501;DHT22;16450;50.288;10.966;2023-02-15T05:52:27;-0.30;99.90
29501;DHT22;16450;50.288;10.966;2023-02-15T05:55:28;-0.30;99.90
29501;DHT22;16450;50.288;10.966;2023-02-15T05:58:33;-0.30;99.90
29501;DHT22;16450;50.288;10.966;2023-02-15T06:01:35;-0.30;99.90
29501;DHT22;16450;50.288;10.966;2023-02-15T06:04:37;-0.40;99.90
29501;DHT22;16450;50.288;10.966;2023-02-15T06:07:39;-0.30;99.90
29501;DHT22;16450;50.288;10.966;2023-02-15T06:10:41;-0.40;99.90
29501;DHT22;16450;50.288;10.966;2023-02-15T06:13:42;-0.40;99.90
29501;DHT22;16450;50.288;10.966;2023-02-15T06:16:44;-0.40;99.90
29501;DHT22;16450;50.288;10.966;2023-02-15T06:19:46;-0.40;99.90
29501;DHT22;16450;50.288;10.966;2023-02-15T06:22:47;-0.40;99.90
29501;DHT22;16450;50.288;10.966;2023-02-15T06:25:49;-0.40;99.90
29501;DHT22;16450;50.288;10.966;2023-02-15T06:28:51;-0.40;99.90
29501;DHT22;16450;50.288;10.966;2023-02-15T06:31:53;-0.40;99.90
29501;DHT22;16450;50.288;10.966;2023-02-15T06:34:55;-0.40;99.90
29501;DHT22;16450;50.288;10.966;2023-02-15T06:37:56;-0.40;99.90
29501;DHT22;16450;50.288;10.966;2023-02-15T06:40:58;-0.40;99.90
29501;DHT22;16450;50.288;10.966;2023-02-15T06:44:00;-0.40;99.90
29501;DHT22;16450;50.288;10.966;2023-02-15T06:47:02;-0.40;99.90
29501;DHT22;16450;50.288;10.966;2023-02-15T06:50:05;-0.40;99.90
29501;DHT22;16450;50.288;10.966;2023-02-15T06:53:08;-0.40;99.90
29501;DHT22;16450;50.288;10.966;2023-02-15T06:56:10;-0.40;99.90
29501;DHT22;16450;50.288;10.966;2023-02-15T06:59:12;-0.40;99.90
29501;DHT22;16450;50.288;10.966;2023-02-15T07:02:14;-0.40;99.90
29501;DHT22;16450;50.288;10.966;2023-02-15T07:05:16;-0.40;99.90
29501;DHT22;16450;50.288;10.966;2023-02-15T07:08:18;-0.40;99.90
29501;DHT22;16450;50.288;10.966;2023-02-15T07:11:21;-0.40;99.90
29501;DHT22;16450;50.288;10.966;2023-02-15T07:14:41;-0.40;99.90
29501;DHT22;16450;50.288;10.966;2023-02-15T07:17:44;-0.40;99.90
29501;DHT22;16450;50.288;10.966;2023-02-15T07:20:46;-0.40;99.90
29501;DHT22;16450;50.288;10.966;2023-02-15T07:23:48;-0.40;99.90
29501;DHT22;16450;50.288;10.966;2023-02-15T07:26:50;-0.40;99.90
29501;DHT22;16450;50.288;10.966;2023-02-15T07:29:52;-0.40;99.90
29501;DHT22;16450;50.288;10.966;2023-02-15T07:32:58;-0.40;99.90
29501;DHT22;16450;50.288;10.966;2023-02-15T07:36:18;-0.40;99.90
29501;DHT22;16450;50.288;10.966;2023-02-15T07:39:20;-0.40;99.90
29501;DHT22;16450;50.288;10.966;2023-02-15T07:42:23;-0.40;99.90
29501;DHT22;16450;50.288;10.966;2023-02-15T07:45:25;-0.30;99.90
29501;DHT22;16450;50.288;10.966;2023-02-15T07:48:27;-0.30;99.90
29501;DHT22;16450;50.288;10.966;2023-02-15T07:51:28;-0.30;99.90
29501;DHT22;16450;50.288;10.966;2023-02-15T07:54:30;-0.30;99.90
29501;DHT22;16450;50.288;10.966;2023-02-15T07:57:32;-0.30;99.90
29501;DHT22;16450;50.288;10.966;2023-02-15T08:00:34;-0.30;99.90
29501;DHT22;16450;50.288;10.966;2023-02-15T08:03:56;-0.30;99.90
29501;DHT22;16450;50.288;10.966;2023-02-15T08:07:00;-0.30;99.90
29501;DHT22;16450;50.288;10.966;2023-02-15T08:10:02;-0.30;99.90
29501;DHT22;16450;50.288;10.966;2023-02-15T08:13:04;-0.30;99.90
29501;DHT22;16450;50.288;10.966;2023-02-15T08:16:06;-0.30;99.90
29501;DHT22;16450;50.288;10.966;2023-02-15T08:19:17;-0.20;99.90
29501;DHT22;16450;50.288;10.966;2023-02-15T08:22:19;-0.20;99.90
29501;DHT22;16450;50.288;10.966;2023-02-15T08:25:20;-0.20;99.90
29501;DHT22;16450;50.288;10.966;2023-02-15T08:28:22;-0.20;99.90
29501;DHT22;16450;50.288;10.966;2023-02-15T08:31:24;-0.10;99.90
29501;DHT22;16450;50.288;10.966;2023-02-15T08:34:26;-0.10;99.90
29501;DHT22;16450;50.288;10.966;2023-02-15T08:37:28;-0.10;99.90
29501;DHT22;16450;50.288;10.966;2023-02-15T08:40:30;-0.10;99.90
29501;DHT22;16450;50.288;10.966;2023-02-15T08:43:32;-0.10;99.90
29501;DHT22;16450;50.288;10.966;2023-02-15T08:46:35;-0.10;99.90
29501;DHT22;16450;50.288;10.966;2023-02-15T08:49:38;0.00;99.90
29501;DHT22;16450;50.288;10.966;2023-02-15T08:52:39;-0.10;99.90
29501;DHT22;16450;50.288;10.966;2023-02-15T08:55:41;0.00;99.90
29501;DHT22;16450;50.288;10.966;2023-02-15T08:58:43;0.00;99.90
29501;DHT22;16450;50.288;10.966;2023-02-15T09:01:46;0.00;99.90
29501;DHT22;16450;50.288;10.966;2023-02-15T09:04:48;0.00;99.90
29501;DHT22;16450;50.288;10.966;2023-02-15T09:07:49;0.00;99.90
29501;DHT22;16450;50.288;10.966;2023-02-15T09:10:51;0.00;99.90
29501;DHT22;16450;50.288;10.966;2023-02-15T09:14:01;0.00;99.90
29501;DHT22;16450;50.288;10.966;2023-02-15T09:17:03;0.10;99.90
29501;DHT22;16450;50.288;10.966;2023-02-15T09:20:05;0.00;99.90
29501;DHT22;16450;50.288;10.966;2023-02-15T09:23:08;0.10;99.90
29501;DHT22;16450;50.288;10.966;2023-02-15T09:26:23;0.10;99.90
29501;DHT22;16450;50.288;10.966;2023-02-15T09:29:25;0.10;99.90
29501;DHT22;16450;50.288;10.966;2023-02-15T09:32:27;0.10;99.90
29501;DHT22;16450;50.288;10.966;2023-02-15T09:35:29;0.10;99.90
29501;DHT22;16450;50.288;10.966;2023-02-15T09:38:31;0.20;99.90
29501;DHT22;16450;50.288;10.966;2023-02-15T09:45:25;0.20;99.90
29501;DHT22;16450;50.288;10.966;2023-02-15T09:48:37;0.20;99.90
29501;DHT22;16450;50.288;10.966;2023-02-15T10:02:29;0.30;99.90
29501;DHT22;16450;50.288;10.966;2023-02-15T10:05:45;0.30;99.90
29501;DHT22;16450;50.288;10.966;2023-02-15T10:29:02;0.50;99.90
29501;DHT22;16450;50.288;10.966;2023-02-15T10:32:25;0.50;99.90
29501;DHT22;16450;50.288;10.966;2023-02-15T10:35:37;0.60;99.90
29501;DHT22;16450;50.288;10.966;2023-02-15T10:38:45;0.60;99.90
29501;DHT22;16450;50.288;10.966;2023-02-15T10:42:30;0.60;99.90
29501;DHT22;16450;50.288;10.966;2023-02-15T10:52:37;0.60;99.90
29501;DHT22;16450;50.288;10.966;2023-02-15T11:02:39;0.70;99.90
29501;DHT22;16450;50.288;10.966;2023-02-15T11:06:06;0.70;99.90
29501;DHT22;16450;50.288;10.966;2023-02-15T11:09:13;0.70;99.90
29501;DHT22;16450;50.288;10.966;2023-02-15T11:12:20;0.80;99.90
29501;DHT22;16450;50.288;10.966;2023-02-15T11:15:33;0.80;99.90
29501;DHT22;16450;50.288;10.966;2023-02-15T11:18:40;0.80;99.90
29501;DHT22;16450;50.288;10.966;2023-02-15T11:21:46;0.80;99.90
29501;DHT22;16450;50.288;10.966;2023-02-15T11:24:51;0.90;99.90
29501;DHT22;16450;50.288;10.966;2023-02-15T11:27:54;0.90;99.90
29501;DHT22;16450;50.288;10.966;2023-02-15T11:31:01;0.90;99.90
29501;DHT22;16450;50.288;10.966;2023-02-15T11:34:10;0.90;99.90
29501;DHT22;16450;50.288;10.966;2023-02-15T11:37:18;0.90;99.90
29501;DHT22;16450;50.288;10.966;2023-02-15T11:40:29;0.90;99.90
29501;DHT22;16450;50.288;10.966;2023-02-15T11:46:42;1.00;99.90
29501;DHT22;16450;50.288;10.966;2023-02-15T11:49:45;1.10;99.90
29501;DHT22;16450;50.288;10.966;2023-02-15T11:52:48;1.10;99.90
29501;DHT22;16450;50.288;10.966;2023-02-15T11:55:50;1.00;99.90
29501;DHT22;16450;50.288;10.966;2023-02-15T11:58:56;1.10;99.90
29501;DHT22;16450;50.288;10.966;2023-02-15T12:02:00;1.10;99.90
29501;DHT22;16450;50.288;10.966;2023-02-15T12:05:07;1.20;99.90
29501;DHT22;16450;50.288;10.966;2023-02-15T12:08:16;1.20;99.90
29501;DHT22;16450;50.288;10.966;2023-02-15T12:11:25;1.20;99.90
29501;DHT22;16450;50.288;10.966;2023-02-15T12:14:47;1.20;99.90
29501;DHT22;16450;50.288;10.966;2023-02-15T12:17:51;1.20;99.90
29501;DHT22;16450;50.288;10.966;2023-02-15T12:20:59;1.30;99.90
29501;DHT22;16450;50.288;10.966;2023-02-15T12:27:34;1.30;99.90
29501;DHT22;16450;50.288;10.966;2023-02-15T12:30:37;1.40;99.90
29501;DHT22;16450;50.288;10.966;2023-02-15T12:33:41;1.40;99.90
29501;DHT22;16450;50.288;10.966;2023-02-15T12:36:49;1.40;99.90
29501;DHT22;16450;50.288;10.966;2023-02-15T12:40:01;1.50;99.90
29501;DHT22;16450;50.288;10.966;2023-02-15T12:43:03;1.50;99.90
29501;DHT22;16450;50.288;10.966;2023-02-15T12:46:23;1.50;99.90
29501;DHT22;16450;50.288;10.966;2023-02-15T12:49:26;1.50;99.90
29501;DHT22;16450;50.288;10.966;2023-02-15T12:52:28;1.50;99.90
29501;DHT22;16450;50.288;10.966;2023-02-15T12:55:30;1.60;99.90
29501;DHT22;16450;50.288;10.966;2023-02-15T12:58:39;1.60;99.90
29501;DHT22;16450;50.288;10.966;2023-02-15T13:01:42;1.60;99.90
29501;DHT22;16450;50.288;10.966;2023-02-15T13:04:48;1.60;99.90
29501;DHT22;16450;50.288;10.966;2023-02-15T13:07:55;1.60;99.90
29501;DHT22;16450;50.288;10.966;2023-02-15T13:14:32;1.60;99.90
29501;DHT22;16450;50.288;10.966;2023-02-15T13:17:35;1.60;99.90
29501;DHT22;16450;50.288;10.966;2023-02-15T13:20:37;1.60;99.90
29501;DHT22;16450;50.288;10.966;2023-02-15T13:23:52;1.50;99.90
29501;DHT22;16450;50.288;10.966;2023-02-15T13:26:56;1.50;99.90
29501;DHT22;16450;50.288;10.966;2023-02-15T13:30:31;1.50;99.90
29501;DHT22;16450;50.288;10.966;2023-02-15T13:33:36;1.50;99.90
29501;DHT22;16450;50.288;10.966;2023-02-15T13:36:54;1.50;99.90
29501;DHT22;16450;50.288;10.966;2023-02-15T13:40:03;1.50;99.90
29501;DHT22;16450;50.288;10.966;2023-02-15T13:43:40;1.50;99.90
29501;DHT22;16450;50.288;10.966;2023-02-15T13:46:54;1.60;99.90
29501;DHT22;16450;50.288;10.966;2023-02-15T13:53:36;1.50;99.90
29501;DHT22;16450;50.288;10.966;2023-02-15T13:57:02;1.50;99.90
29501;DHT22;16450;50.288;10.966;2023-02-15T14:03:17;1.50;99.90
29501;DHT22;16450;50.288;10.966;2023-02-15T14:06:32;1.50;99.90
29501;DHT22;16450;50.288;10.966;2023-02-15T14:13:35;1.40;99.90
29501;DHT22;16450;50.288;10.966;2023-02-15T14:20:19;1.50;99.90
29501;DHT22;16450;50.288;10.966;2023-02-15T14:23:47;1.40;99.90
29501;DHT22;16450;50.288;10.966;2023-02-15T14:27:10;1.40;99.90
29501;DHT22;16450;50.288;10.966;2023-02-15T14:30:20;1.40;99.90
29501;DHT22;16450;50.288;10.966;2023-02-15T14:33:43;1.50;99.90
29501;DHT22;16450;50.288;10.966;2023-02-15T14:36:50;1.50;99.90
29501;DHT22;16450;50.288;10.966;2023-02-15T14:40:39;1.50;99.90
29501;DHT22;16450;50.288;10.966;2023-02-15T14:44:08;1.50;99.90
29501;DHT22;16450;50.288;10.966;2023-02-15T14:47:26;1.50;99.90
29501;DHT22;16450;50.288;10.966;2023-02-15T14:53:39;1.50;99.90
29501;DHT22;16450;50.288;10.966;2023-02-15T14:56:41;1.50;99.90
29501;DHT22;16450;50.288;10.966;2023-02-15T15:02:59;1.40;99.90
29501;DHT22;16450;50.288;10.966;2023-02-15T15:06:03;1.40;99.90
29501;DHT22;16450;50.288;10.966;2023-02-15T15:09:12;1.40;99.90
29501;DHT22;16450;50.288;10.966;2023-02-15T15:12:36;1.40;99.90
29501;DHT22;16450;50.288;10.966;2023-02-15T15:15:46;1.30;99.90
29501;DHT22;16450;50.288;10.966;2023-02-15T15:18:48;1.30;99.90
29501;DHT22;16450;50.288;10.966;2023-02-15T15:21:54;1.30;99.90
29501;DHT22;16450;50.288;10.966;2023-02-15T15:28:00;1.30;99.90
29501;DHT22;16450;50.288;10.966;2023-02-15T15:31:06;1.30;99.90
29501;DHT22;16450;50.288;10.966;2023-02-15T15:34:38;1.30;99.90
29501;DHT22;16450;50.288;10.966;2023-02-15T15:38:12;1.20;99.90
29501;DHT22;16450;50.288;10.966;2023-02-15T15:41:18;1.20;99.90
29501;DHT22;16450;50.288;10.966;2023-02-15T15:51:22;1.20;99.90
29501;DHT22;16450;50.288;10.966;2023-02-15T15:54:28;1.20;99.90
29501;DHT22;16450;50.288;10.966;2023-02-15T15:57:38;1.20;99.90
29501;DHT22;16450;50.288;10.966;2023-02-15T16:03:54;1.10;99.90
29501;DHT22;16450;50.288;10.966;2023-02-15T16:06:57;1.10;99.90
29501;DHT22;16450;50.288;10.966;2023-02-15T16:13:22;1.10;99.90
29501;DHT22;16450;50.288;10.966;2023-02-15T16:16:27;1.10;99.90
29501;DHT22;16450;50.288;10.966;2023-02-15T16:19:34;1.10;99.90
29501;DHT22;16450;50.288;10.966;2023-02-15T16:22:38;1.10;99.90
29501;DHT22;16450;50.288;10.966;2023-02-15T16:25:55;1.00;99.90
29501;DHT22;16450;50.288;10.966;2023-02-15T16:28:58;1.00;99.90
29501;DHT22;16450;50.288;10.966;2023-02-15T16:32:26;1.00;99.90
29501;DHT22;16450;50.288;10.966;2023-02-15T16:35:28;1.00;99.90
29501;DHT22;16450;50.288;10.966;2023-02-15T16:41:45;1.00;99.90
29501;DHT22;16450;50.288;10.966;2023-02-15T16:44:53;1.00;99.90
29501;DHT22;16450;50.288;10.966;2023-02-15T16:47:57;1.00;99.90
29501;DHT22;16450;50.288;10.966;2023-02-15T16:51:01;1.00;99.90
29501;DHT22;16450;50.288;10.966;2023-02-15T16:54:08;1.00;99.90
29501;DHT22;16450;50.288;10.966;2023-02-15T16:57:20;1.00;99.90
29501;DHT22;16450;50.288;10.966;2023-02-15T17:00:25;1.00;99.90
29501;DHT22;16450;50.288;10.966;2023-02-15T17:03:28;1.00;99.90
29501;DHT22;16450;50.288;10.966;2023-02-15T17:06:30;1.00;99.90
29501;DHT22;16450;50.288;10.966;2023-02-15T17:09:33;1.00;99.90
29501;DHT22;16450;50.288;10.966;2023-02-15T17:12:45;1.00;99.90
29501;DHT22;16450;50.288;10.966;2023-02-15T17:19:25;1.00;99.90
29501;DHT22;16450;50.288;10.966;2023-02-15T17:22:28;0.90;99.90
29501;DHT22;16450;50.288;10.966;2023-02-15T17:25:39;0.90;99.90
29501;DHT22;16450;50.288;10.966;2023-02-15T17:29:02;0.90;99.90
29501;DHT22;16450;50.288;10.966;2023-02-15T17:32:16;0.90;99.90
29501;DHT22;16450;50.288;10.966;2023-02-15T17:35:20;1.00;99.90
29501;DHT22;16450;50.288;10.966;2023-02-15T17:38:23;1.00;99.90
29501;DHT22;16450;50.288;10.966;2023-02-15T17:41:26;1.00;99.90
29501;DHT22;16450;50.288;10.966;2023-02-15T17:44:28;1.00;99.90
29501;DHT22;16450;50.288;10.966;2023-02-15T17:47:30;1.00;99.90
29501;DHT22;16450;50.288;10.966;2023-02-15T17:50:33;0.90;99.90
29501;DHT22;16450;50.288;10.966;2023-02-15T17:53:35;1.00;99.90
29501;DHT22;16450;50.288;10.966;2023-02-15T17:56:38;1.00;99.90
29501;DHT22;16450;50.288;10.966;2023-02-15T17:59:40;1.00;99.90
29501;DHT22;16450;50.288;10.966;2023-02-15T18:03:01;1.00;99.90
29501;DHT22;16450;50.288;10.966;2023-02-15T18:06:21;1.00;99.90
29501;DHT22;16450;50.288;10.966;2023-02-15T18:09:42;1.00;99.90
29501;DHT22;16450;50.288;10.966;2023-02-15T18:13:03;1.00;99.90
29501;DHT22;16450;50.288;10.966;2023-02-15T18:16:05;1.00;99.90
29501;DHT22;16450;50.288;10.966;2023-02-15T18:19:15;1.00;99.90
29501;DHT22;16450;50.288;10.966;2023-02-15T18:22:18;1.00;99.90
29501;DHT22;16450;50.288;10.966;2023-02-15T18:25:21;0.90;99.90
29501;DHT22;16450;50.288;10.966;2023-02-15T18:28:24;0.90;99.90
29501;DHT22;16450;50.288;10.966;2023-02-15T18:31:27;0.90;99.90
29501;DHT22;16450;50.288;10.966;2023-02-15T18:34:37;0.90;99.90
29501;DHT22;16450;50.288;10.966;2023-02-15T18:37:40;0.90;99.90
29501;DHT22;16450;50.288;10.966;2023-02-15T18:40:43;0.80;99.90
29501;DHT22;16450;50.288;10.966;2023-02-15T18:43:46;0.80;99.90
29501;DHT22;16450;50.288;10.966;2023-02-15T18:46:49;0.80;99.90
29501;DHT22;16450;50.288;10.966;2023-02-15T18:49:51;0.80;99.90
29501;DHT22;16450;50.288;10.966;2023-02-15T18:52:53;0.80;99.90
29501;DHT22;16450;50.288;10.966;2023-02-15T18:55:55;0.80;99.90
29501;DHT22;16450;50.288;10.966;2023-02-15T18:58:58;0.80;99.90
29501;DHT22;16450;50.288;10.966;2023-02-15T19:01:59;0.80;99.90
29501;DHT22;16450;50.288;10.966;2023-02-15T19:05:01;0.80;99.90
29501;DHT22;16450;50.288;10.966;2023-02-15T19:08:03;0.80;99.90
29501;DHT22;16450;50.288;10.966;2023-02-15T19:11:14;0.80;99.90
29501;DHT22;16450;50.288;10.966;2023-02-15T19:14:23;0.80;99.90
29501;DHT22;16450;50.288;10.966;2023-02-15T19:17:25;0.80;99.90
29501;DHT22;16450;50.288;10.966;2023-02-15T19:20:34;0.80;99.90
29501;DHT22;16450;50.288;10.966;2023-02-15T19:23:37;0.80;99.90
29501;DHT22;16450;50.288;10.966;2023-02-15T19:26:40;0.80;99.90
29501;DHT22;16450;50.288;10.966;2023-02-15T19:29:46;0.80;99.90
29501;DHT22;16450;50.288;10.966;2023-02-15T19:32:49;0.80;99.90
29501;DHT22;16450;50.288;10.966;2023-02-15T19:35:52;0.90;99.90
29501;DHT22;16450;50.288;10.966;2023-02-15T19:38:57;0.90;99.90
29501;DHT22;16450;50.288;10.966;2023-02-15T19:41:59;0.90;99.90
29501;DHT22;16450;50.288;10.966;2023-02-15T19:45:01;0.90;99.90
29501;DHT22;16450;50.288;10.966;2023-02-15T19:48:05;0.90;99.90
29501;DHT22;16450;50.288;10.966;2023-02-15T19:51:08;0.90;99.90
29501;DHT22;16450;50.288;10.966;2023-02-15T19:54:20;0.90;99.90
29501;DHT22;16450;50.288;10.966;2023-02-15T19:57:27;0.90;99.90
29501;DHT22;16450;50.288;10.966;2023-02-15T20:00:33;0.90;99.90
29501;DHT22;16450;50.288;10.966;2023-02-15T20:03:34;0.90;99.90
29501;DHT22;16450;50.288;10.966;2023-02-15T20:06:36;0.90;99.90
29501;DHT22;16450;50.288;10.966;2023-02-15T20:09:39;0.90;99.90
29501;DHT22;16450;50.288;10.966;2023-02-15T20:12:41;0.90;99.90
29501;DHT22;16450;50.288;10.966;2023-02-15T20:15:44;0.90;99.90
29501;DHT22;16450;50.288;10.966;2023-02-15T20:18:46;0.90;99.90
29501;DHT22;16450;50.288;10.966;2023-02-15T20:21:48;0.90;99.90
29501;DHT22;16450;50.288;10.966;2023-02-15T20:24:53;0.90;99.90
29501;DHT22;16450;50.288;10.966;2023-02-15T20:27:56;0.90;99.90
29501;DHT22;16450;50.288;10.966;2023-02-15T20:30:59;0.90;99.90
29501;DHT22;16450;50.288;10.966;2023-02-15T20:34:01;0.90;99.90
29501;DHT22;16450;50.288;10.966;2023-02-15T20:37:04;0.90;99.90
29501;DHT22;16450;50.288;10.966;2023-02-15T20:43:21;0.90;99.90
29501;DHT22;16450;50.288;10.966;2023-02-15T20:46:23;0.90;99.90
29501;DHT22;16450;50.288;10.966;2023-02-15T20:49:26;0.90;99.90
29501;DHT22;16450;50.288;10.966;2023-02-15T20:52:28;0.90;99.90
29501;DHT22;16450;50.288;10.966;2023-02-15T20:55:30;0.90;99.90
29501;DHT22;16450;50.288;10.966;2023-02-15T20:58:33;0.90;99.90
29501;DHT22;16450;50.288;10.966;2023-02-15T21:01:36;0.90;99.90
29501;DHT22;16450;50.288;10.966;2023-02-15T21:04:38;1.00;99.90
29501;DHT22;16450;50.288;10.966;2023-02-15T21:07:40;0.90;99.90
29501;DHT22;16450;50.288;10.966;2023-02-15T21:10:43;1.00;99.90
29501;DHT22;16450;50.288;10.966;2023-02-15T21:13:47;1.00;99.90
29501;DHT22;16450;50.288;10.966;2023-02-15T21:16:50;1.00;99.90
29501;DHT22;16450;50.288;10.966;2023-02-15T21:19:52;1.00;99.90
29501;DHT22;16450;50.288;10.966;2023-02-15T21:22:55;1.00;99.90
29501;DHT22;16450;50.288;10.966;2023-02-15T21:25:57;1.00;99.90
29501;DHT22;16450;50.288;10.966;2023-02-15T21:28:59;1.00;99.90
29501;DHT22;16450;50.288;10.966;2023-02-15T21:32:01;1.00;99.90